sensor_id;sensor_type;location;lat;lon;timestamp;temperature;humidity
770;DHT22;368;48.698;9.116;2023-07-13T00:00:07;18.40;99.90
770;DHT22;368;48.698;9.116;2023-07-13T00:02:35;18.30;99.90
770;DHT22;368;48.698;9.116;2023-07-13T00:05:02;18.20;99.90
770;DHT22;368;48.698;9.116;2023-07-13T00:07:30;18.10;99.90
770;DHT22;368;48.698;9.116;2023-07-13T00:09:57;18.00;99.90
770;DHT22;368;48.698;9.116;2023-07-13T00:12:27;18.10;99.90
770;DHT22;368;48.698;9.116;2023-07-13T00:14:55;18.10;99.60
770;DHT22;368;48.698;9.116;2023-07-13T00:17:22;18.20;99.30
770;DHT22;368;48.698;9.116;2023-07-13T00:19:49;18.10;99.70
770;DHT22;368;48.698;9.116;2023-07-13T00:22:16;18.10;99.30
770;DHT22;368;48.698;9.116;2023-07-13T00:24:45;18.00;99.20
770;DHT22;368;48.698;9.116;2023-07-13T00:27:12;17.90;99.60
770;DHT22;368;48.698;9.116;2023-07-13T00:29:39;18.10;99.10
770;DHT22;368;48.698;9.116;2023-07-13T00:32:07;18.00;99.40
770;DHT22;368;48.698;9.116;2023-07-13T00:34:35;17.90;99.50
770;DHT22;368;48.698;9.116;2023-07-13T00:37:01;17.80;99.60
770;DHT22;368;48.698;9.116;2023-07-13T00:39:28;17.80;99.90
770;DHT22;368;48.698;9.116;2023-07-13T00:41:56;17.80;99.90
770;DHT22;368;48.698;9.116;2023-07-13T00:44:23;17.80;99.90
770;DHT22;368;48.698;9.116;2023-07-13T00:46:50;17.80;99.80
770;DHT22;368;48.698;9.116;2023-07-13T00:49:20;17.70;99.90
770;DHT22;368;48.698;9.116;2023-07-13T00:51:49;17.50;99.90
770;DHT22;368;48.698;9.116;2023-07-13T00:54:20;17.40;99.90
770;DHT22;368;48.698;9.116;2023-07-13T00:56:50;17.30;99.90
770;DHT22;368;48.698;9.116;2023-07-13T00:59:20;17.20;99.90
770;DHT22;368;48.698;9.116;2023-07-13T01:01:48;17.10;99.90
770;DHT22;368;48.698;9.116;2023-07-13T01:04:16;16.90;99.90
770;DHT22;368;48.698;9.116;2023-07-13T01:06:43;16.70;99.90
770;DHT22;368;48.698;9.116;2023-07-13T01:09:10;16.60;99.90
770;DHT22;368;48.698;9.116;2023-07-13T01:11:38;16.60;99.90
770;DHT22;368;48.698;9.116;2023-07-13T01:14:05;16.70;99.90
770;DHT22;368;48.698;9.116;2023-07-13T01:16:34;16.80;99.90
770;DHT22;368;48.698;9.116;2023-07-13T01:19:03;16.90;99.90
770;DHT22;368;48.698;9.116;2023-07-13T01:21:35;17.00;99.90
770;DHT22;368;48.698;9.116;2023-07-13T01:24:03;16.90;99.90
770;DHT22;368;48.698;9.116;2023-07-13T01:26:30;16.90;99.90
770;DHT22;368;48.698;9.116;2023-07-13T01:28:57;17.00;99.90
770;DHT22;368;48.698;9.116;2023-07-13T01:31:24;17.00;99.90
770;DHT22;368;48.698;9.116;2023-07-13T01:33:51;16.80;99.90
770;DHT22;368;48.698;9.116;2023-07-13T01:36:19;16.70;99.90
770;DHT22;368;48.698;9.116;2023-07-13T01:38:48;16.60;99.90
770;DHT22;368;48.698;9.116;2023-07-13T01:41:14;16.50;99.90
770;DHT22;368;48.698;9.116;2023-07-13T01:43:41;16.50;99.90
770;DHT22;368;48.698;9.116;2023-07-13T01:46:08;16.30;99.90
770;DHT22;368;48.698;9.116;2023-07-13T01:48:35;16.20;99.90
770;DHT22;368;48.698;9.116;2023-07-13T01:51:01;16.00;99.90
770;DHT22;368;48.698;9.116;2023-07-13T01:53:28;16.20;99.90
770;DHT22;368;48.698;9.116;2023-07-13T01:55:56;16.10;99.90
770;DHT22;368;48.698;9.116;2023-07-13T01:58:23;16.00;99.90
770;DHT22;368;48.698;9.116;2023-07-13T02:00:51;16.00;99.90
770;DHT22;368;48.698;9.116;2023-07-13T02:03:18;15.80;99.90
770;DHT22;368;48.698;9.116;2023-07-13T02:05:45;15.80;99.90
770;DHT22;368;48.698;9.116;2023-07-13T02:08:12;15.70;99.90
770;DHT22;368;48.698;9.116;2023-07-13T02:10:38;15.50;99.90
770;DHT22;368;48.698;9.116;2023-07-13T02:13:07;15.40;99.90
770;DHT22;368;48.698;9.116;2023-07-13T02:15:37;15.30;99.90
770;DHT22;368;48.698;9.116;2023-07-13T02:18:04;15.20;99.90
770;DHT22;368;48.698;9.116;2023-07-13T02:20:31;15.20;99.90
770;DHT22;368;48.698;9.116;2023-07-13T02:22:58;15.20;99.90
770;DHT22;368;48.698;9.116;2023-07-13T02:25:25;15.10;99.90
770;DHT22;368;48.698;9.116;2023-07-13T02:27:52;15.30;99.90
770;DHT22;368;48.698;9.116;2023-07-13T02:30:20;15.30;99.90
770;DHT22;368;48.698;9.116;2023-07-13T02:32:50;15.30;99.90
770;DHT22;368;48.698;9.116;2023-07-13T02:35:17;15.20;99.90
770;DHT22;368;48.698;9.116;2023-07-13T02:37:43;15.00;99.90
770;DHT22;368;48.698;9.116;2023-07-13T02:40:10;15.10;99.90
770;DHT22;368;48.698;9.116;2023-07-13T02:42:38;15.10;99.90
770;DHT22;368;48.698;9.116;2023-07-13T02:45:06;14.60;99.90
770;DHT22;368;48.698;9.116;2023-07-13T02:47:34;14.90;99.90
770;DHT22;368;48.698;9.116;2023-07-13T02:50:01;14.90;99.90
770;DHT22;368;48.698;9.116;2023-07-13T02:52:28;15.00;99.90
770;DHT22;368;48.698;9.116;2023-07-13T02:54:55;15.00;99.90
770;DHT22;368;48.698;9.116;2023-07-13T02:57:21;15.20;99.90
770;DHT22;368;48.698;9.116;2023-07-13T02:59:48;15.10;99.90
770;DHT22;368;48.698;9.116;2023-07-13T03:02:15;14.90;99.90
770;DHT22;368;48.698;9.116;2023-07-13T03:04:43;15.00;99.90
770;DHT22;368;48.698;9.116;2023-07-13T03:07:10;14.90;99.90
770;DHT22;368;48.698;9.116;2023-07-13T03:09:38;14.80;99.90
770;DHT22;368;48.698;9.116;2023-07-13T03:12:05;14.70;99.90
770;DHT22;368;48.698;9.116;2023-07-13T03:14:33;14.60;99.90
770;DHT22;368;48.698;9.116;2023-07-13T03:16:59;15.10;99.90
770;DHT22;368;48.698;9.116;2023-07-13T03:19:26;15.00;99.90
770;DHT22;368;48.698;9.116;2023-07-13T03:21:54;14.80;99.90
770;DHT22;368;48.698;9.116;2023-07-13T03:24:21;15.10;99.90
770;DHT22;368;48.698;9.116;2023-07-13T03:26:50;15.20;99.90
770;DHT22;368;48.698;9.116;2023-07-13T03:29:16;15.00;99.90
770;DHT22;368;48.698;9.116;2023-07-13T03:31:43;15.40;99.90
770;DHT22;368;48.698;9.116;2023-07-13T03:34:10;15.30;99.90
770;DHT22;368;48.698;9.116;2023-07-13T03:36:37;15.30;99.90
770;DHT22;368;48.698;9.116;2023-07-13T03:39:05;15.30;99.90
770;DHT22;368;48.698;9.116;2023-07-13T03:41:34;15.40;99.90
770;DHT22;368;48.698;9.116;2023-07-13T03:44:00;15.60;99.90
770;DHT22;368;48.698;9.116;2023-07-13T03:46:27;15.80;99.90
770;DHT22;368;48.698;9.116;2023-07-13T03:48:54;15.90;99.90
770;DHT22;368;48.698;9.116;2023-07-13T03:51:21;15.90;99.90
770;DHT22;368;48.698;9.116;2023-07-13T03:53:48;15.90;99.90
770;DHT22;368;48.698;9.116;2023-07-13T03:56:18;16.00;99.90
770;DHT22;368;48.698;9.116;2023-07-13T03:58:46;16.10;99.90
770;DHT22;368;48.698;9.116;2023-07-13T04:01:13;16.10;99.90
770;DHT22;368;48.698;9.116;2023-07-13T04:03:41;16.20;99.90
770;DHT22;368;48.698;9.116;2023-07-13T04:06:16;16.10;99.90
770;DHT22;368;48.698;9.116;2023-07-13T04:08:47;16.10;99.90
770;DHT22;368;48.698;9.116;2023-07-13T04:11:15;16.20;99.90
770;DHT22;368;48.698;9.116;2023-07-13T04:13:42;16.20;99.90
770;DHT22;368;48.698;9.116;2023-07-13T04:16:09;16.20;99.90
770;DHT22;368;48.698;9.116;2023-07-13T04:18:36;16.20;99.90
770;DHT22;368;48.698;9.116;2023-07-13T04:21:03;16.30;99.90
770;DHT22;368;48.698;9.116;2023-07-13T04:23:30;16.20;99.90
770;DHT22;368;48.698;9.116;2023-07-13T04:25:56;16.20;99.90
770;DHT22;368;48.698;9.116;2023-07-13T04:28:26;16.30;99.90
770;DHT22;368;48.698;9.116;2023-07-13T04:30:53;16.20;99.90
770;DHT22;368;48.698;9.116;2023-07-13T04:33:20;16.10;99.90
770;DHT22;368;48.698;9.116;2023-07-13T04:35:48;16.10;99.90
770;DHT22;368;48.698;9.116;2023-07-13T04:38:15;16.20;99.90
770;DHT22;368;48.698;9.116;2023-07-13T04:40:42;16.30;99.90
770;DHT22;368;48.698;9.116;2023-07-13T04:43:11;16.30;99.90
770;DHT22;368;48.698;9.116;2023-07-13T04:45:39;16.30;99.90
770;DHT22;368;48.698;9.116;2023-07-13T04:48:05;16.40;99.90
770;DHT22;368;48.698;9.116;2023-07-13T04:50:32;16.30;99.90
770;DHT22;368;48.698;9.116;2023-07-13T04:52:59;16.20;99.90
770;DHT22;368;48.698;9.116;2023-07-13T04:55:26;16.30;99.90
770;DHT22;368;48.698;9.116;2023-07-13T04:57:56;16.50;99.90
770;DHT22;368;48.698;9.116;2023-07-13T05:00:24;16.50;99.90
770;DHT22;368;48.698;9.116;2023-07-13T05:02:53;16.60;99.90
770;DHT22;368;48.698;9.116;2023-07-13T05:05:20;16.60;99.90
770;DHT22;368;48.698;9.116;2023-07-13T05:07:47;16.60;99.90
770;DHT22;368;48.698;9.116;2023-07-13T05:10:13;16.60;99.90
770;DHT22;368;48.698;9.116;2023-07-13T05:12:40;16.70;99.90
770;DHT22;368;48.698;9.116;2023-07-13T05:15:07;17.00;99.90
770;DHT22;368;48.698;9.116;2023-07-13T05:17:34;17.20;99.90
770;DHT22;368;48.698;9.116;2023-07-13T05:20:03;17.30;99.90
770;DHT22;368;48.698;9.116;2023-07-13T05:22:30;17.30;99.90
770;DHT22;368;48.698;9.116;2023-07-13T05:24:56;17.30;99.90
770;DHT22;368;48.698;9.116;2023-07-13T05:27:23;17.50;99.90
770;DHT22;368;48.698;9.116;2023-07-13T05:29:50;17.50;99.90
770;DHT22;368;48.698;9.116;2023-07-13T05:32:17;17.60;99.90
770;DHT22;368;48.698;9.116;2023-07-13T05:34:44;17.60;99.90
770;DHT22;368;48.698;9.116;2023-07-13T05:37:12;17.60;99.90
770;DHT22;368;48.698;9.116;2023-07-13T05:39:39;17.60;99.90
770;DHT22;368;48.698;9.116;2023-07-13T05:42:06;17.70;99.90
770;DHT22;368;48.698;9.116;2023-07-13T05:44:33;17.80;99.90
770;DHT22;368;48.698;9.116;2023-07-13T05:47:00;17.90;99.90
770;DHT22;368;48.698;9.116;2023-07-13T05:49:27;17.90;99.90
770;DHT22;368;48.698;9.116;2023-07-13T05:51:55;17.90;99.90
770;DHT22;368;48.698;9.116;2023-07-13T05:54:24;18.00;99.90
770;DHT22;368;48.698;9.116;2023-07-13T05:56:50;18.00;99.90
770;DHT22;368;48.698;9.116;2023-07-13T05:59:17;17.90;99.90
770;DHT22;368;48.698;9.116;2023-07-13T06:01:44;18.00;99.90
770;DHT22;368;48.698;9.116;2023-07-13T06:04:11;17.90;99.90
770;DHT22;368;48.698;9.116;2023-07-13T06:06:38;17.90;99.90
770;DHT22;368;48.698;9.116;2023-07-13T06:09:05;18.00;99.90
770;DHT22;368;48.698;9.116;2023-07-13T06:11:33;18.60;99.90
770;DHT22;368;48.698;9.116;2023-07-13T06:14:00;19.10;99.90
770;DHT22;368;48.698;9.116;2023-07-13T06:16:27;19.10;98.50
770;DHT22;368;48.698;9.116;2023-07-13T06:18:54;19.10;98.80
770;DHT22;368;48.698;9.116;2023-07-13T06:21:22;19.30;98.70
770;DHT22;368;48.698;9.116;2023-07-13T06:23:51;19.40;98.50
770;DHT22;368;48.698;9.116;2023-07-13T06:26:19;19.50;98.50
770;DHT22;368;48.698;9.116;2023-07-13T06:28:47;19.60;98.30
770;DHT22;368;48.698;9.116;2023-07-13T06:31:15;19.90;97.20
770;DHT22;368;48.698;9.116;2023-07-13T06:33:42;20.10;96.70
770;DHT22;368;48.698;9.116;2023-07-13T06:36:09;20.50;95.20
770;DHT22;368;48.698;9.116;2023-07-13T06:38:37;20.80;93.50
770;DHT22;368;48.698;9.116;2023-07-13T06:41:04;20.60;93.70
770;DHT22;368;48.698;9.116;2023-07-13T06:43:31;20.50;92.60
770;DHT22;368;48.698;9.116;2023-07-13T06:45:59;21.10;92.70
770;DHT22;368;48.698;9.116;2023-07-13T06:48:27;21.20;91.50
770;DHT22;368;48.698;9.116;2023-07-13T06:50:54;20.60;92.80
770;DHT22;368;48.698;9.116;2023-07-13T06:53:21;21.10;91.90
770;DHT22;368;48.698;9.116;2023-07-13T06:55:49;21.30;91.80
770;DHT22;368;48.698;9.116;2023-07-13T06:58:17;21.60;90.30
770;DHT22;368;48.698;9.116;2023-07-13T07:00:45;22.10;90.20
770;DHT22;368;48.698;9.116;2023-07-13T07:03:13;22.30;85.40
770;DHT22;368;48.698;9.116;2023-07-13T07:05:40;22.00;84.60
770;DHT22;368;48.698;9.116;2023-07-13T07:08:07;22.30;84.60
770;DHT22;368;48.698;9.116;2023-07-13T07:10:34;22.70;82.60
770;DHT22;368;48.698;9.116;2023-07-13T07:13:01;22.50;84.00
770;DHT22;368;48.698;9.116;2023-07-13T07:15:28;22.60;83.90
770;DHT22;368;48.698;9.116;2023-07-13T07:17:55;22.90;82.60
770;DHT22;368;48.698;9.116;2023-07-13T07:20:24;22.70;80.90
770;DHT22;368;48.698;9.116;2023-07-13T07:22:50;23.30;79.40
770;DHT22;368;48.698;9.116;2023-07-13T07:25:17;24.10;78.40
770;DHT22;368;48.698;9.116;2023-07-13T07:27:44;23.70;75.70
770;DHT22;368;48.698;9.116;2023-07-13T07:30:12;24.50;74.50
770;DHT22;368;48.698;9.116;2023-07-13T07:32:40;24.20;70.00
770;DHT22;368;48.698;9.116;2023-07-13T07:35:08;24.60;73.80
770;DHT22;368;48.698;9.116;2023-07-13T07:37:36;24.80;67.10
770;DHT22;368;48.698;9.116;2023-07-13T07:40:03;24.40;69.00
770;DHT22;368;48.698;9.116;2023-07-13T07:42:30;23.90;70.40
770;DHT22;368;48.698;9.116;2023-07-13T07:44:57;24.50;69.50
770;DHT22;368;48.698;9.116;2023-07-13T07:47:24;24.50;67.20
770;DHT22;368;48.698;9.116;2023-07-13T07:49:50;24.90;68.30
770;DHT22;368;48.698;9.116;2023-07-13T07:52:18;24.80;68.30
770;DHT22;368;48.698;9.116;2023-07-13T07:54:46;24.80;67.70
770;DHT22;368;48.698;9.116;2023-07-13T07:57:14;24.50;66.80
770;DHT22;368;48.698;9.116;2023-07-13T07:59:44;25.50;68.50
770;DHT22;368;48.698;9.116;2023-07-13T08:02:18;25.20;64.50
770;DHT22;368;48.698;9.116;2023-07-13T08:04:45;24.70;64.50
770;DHT22;368;48.698;9.116;2023-07-13T08:07:12;24.10;64.40
770;DHT22;368;48.698;9.116;2023-07-13T08:09:45;23.80;65.30
770;DHT22;368;48.698;9.116;2023-07-13T08:12:13;24.40;68.90
770;DHT22;368;48.698;9.116;2023-07-13T08:14:40;25.60;64.40
770;DHT22;368;48.698;9.116;2023-07-13T08:17:07;26.20;61.80
770;DHT22;368;48.698;9.116;2023-07-13T08:19:33;25.70;61.50
770;DHT22;368;48.698;9.116;2023-07-13T08:22:00;26.40;60.50
770;DHT22;368;48.698;9.116;2023-07-13T08:24:27;26.60;59.40
770;DHT22;368;48.698;9.116;2023-07-13T08:26:55;26.70;60.30
770;DHT22;368;48.698;9.116;2023-07-13T08:29:22;27.10;58.00
770;DHT22;368;48.698;9.116;2023-07-13T08:31:49;26.40;58.30
770;DHT22;368;48.698;9.116;2023-07-13T08:34:16;25.70;60.80
770;DHT22;368;48.698;9.116;2023-07-13T08:36:43;26.10;61.00
770;DHT22;368;48.698;9.116;2023-07-13T08:39:09;26.60;62.10
770;DHT22;368;48.698;9.116;2023-07-13T08:41:37;26.80;57.40
770;DHT22;368;48.698;9.116;2023-07-13T08:44:14;26.00;57.80
770;DHT22;368;48.698;9.116;2023-07-13T08:46:45;26.30;58.10
770;DHT22;368;48.698;9.116;2023-07-13T08:49:16;27.20;57.90
770;DHT22;368;48.698;9.116;2023-07-13T08:51:47;27.00;57.80
770;DHT22;368;48.698;9.116;2023-07-13T08:54:22;27.20;57.20
770;DHT22;368;48.698;9.116;2023-07-13T08:56:50;27.40;56.10
770;DHT22;368;48.698;9.116;2023-07-13T08:59:21;28.60;54.00
770;DHT22;368;48.698;9.116;2023-07-13T09:04:50;29.30;54.10
770;DHT22;368;48.698;9.116;2023-07-13T09:07:27;28.40;52.40
770;DHT22;368;48.698;9.116;2023-07-13T09:10:05;27.70;55.00
770;DHT22;368;48.698;9.116;2023-07-13T09:12:41;27.70;54.80
770;DHT22;368;48.698;9.116;2023-07-13T09:15:25;28.50;53.90
770;DHT22;368;48.698;9.116;2023-07-13T09:17:56;27.20;54.30
770;DHT22;368;48.698;9.116;2023-07-13T09:20:28;27.50;55.40
770;DHT22;368;48.698;9.116;2023-07-13T09:22:59;28.00;54.30
770;DHT22;368;48.698;9.116;2023-07-13T09:25:30;29.40;54.10
770;DHT22;368;48.698;9.116;2023-07-13T09:28:00;29.40;51.10
770;DHT22;368;48.698;9.116;2023-07-13T09:30:36;30.00;51.10
770;DHT22;368;48.698;9.116;2023-07-13T09:33:05;30.40;49.80
770;DHT22;368;48.698;9.116;2023-07-13T09:35:34;28.50;52.00
770;DHT22;368;48.698;9.116;2023-07-13T09:38:10;27.50;53.50
770;DHT22;368;48.698;9.116;2023-07-13T09:40:56;27.70;52.90
770;DHT22;368;48.698;9.116;2023-07-13T09:43:25;27.30;54.30
770;DHT22;368;48.698;9.116;2023-07-13T09:45:55;25.90;55.40
770;DHT22;368;48.698;9.116;2023-07-13T09:48:22;25.00;58.50
770;DHT22;368;48.698;9.116;2023-07-13T09:50:54;25.20;58.10
770;DHT22;368;48.698;9.116;2023-07-13T09:53:21;25.40;57.40
770;DHT22;368;48.698;9.116;2023-07-13T09:55:49;25.00;57.50
770;DHT22;368;48.698;9.116;2023-07-13T09:58:18;26.00;56.80
770;DHT22;368;48.698;9.116;2023-07-13T10:00:56;27.10;55.40
770;DHT22;368;48.698;9.116;2023-07-13T10:03:26;27.70;53.80
770;DHT22;368;48.698;9.116;2023-07-13T10:05:53;27.40;54.80
770;DHT22;368;48.698;9.116;2023-07-13T10:08:23;28.00;56.30
770;DHT22;368;48.698;9.116;2023-07-13T10:10:58;27.80;53.80
770;DHT22;368;48.698;9.116;2023-07-13T10:13:31;28.20;55.20
770;DHT22;368;48.698;9.116;2023-07-13T10:16:01;27.90;52.20
770;DHT22;368;48.698;9.116;2023-07-13T10:18:39;28.00;52.70
770;DHT22;368;48.698;9.116;2023-07-13T10:21:14;29.00;51.60
770;DHT22;368;48.698;9.116;2023-07-13T10:23:42;28.30;51.90
770;DHT22;368;48.698;9.116;2023-07-13T10:26:17;28.20;51.70
770;DHT22;368;48.698;9.116;2023-07-13T10:28:49;28.80;52.50
770;DHT22;368;48.698;9.116;2023-07-13T10:31:19;30.50;51.80
770;DHT22;368;48.698;9.116;2023-07-13T10:33:47;30.40;50.00
770;DHT22;368;48.698;9.116;2023-07-13T10:36:20;30.80;49.80
770;DHT22;368;48.698;9.116;2023-07-13T10:38:50;30.90;49.10
770;DHT22;368;48.698;9.116;2023-07-13T10:41:20;29.90;47.40
770;DHT22;368;48.698;9.116;2023-07-13T10:43:51;29.00;50.90
770;DHT22;368;48.698;9.116;2023-07-13T10:46:22;29.10;50.00
770;DHT22;368;48.698;9.116;2023-07-13T10:48:52;28.80;49.50
770;DHT22;368;48.698;9.116;2023-07-13T10:51:21;28.40;51.90
770;DHT22;368;48.698;9.116;2023-07-13T10:54:12;28.80;51.80
770;DHT22;368;48.698;9.116;2023-07-13T10:56:42;27.30;51.30
770;DHT22;368;48.698;9.116;2023-07-13T10:59:12;27.10;54.30
770;DHT22;368;48.698;9.116;2023-07-13T11:01:50;27.50;52.50
770;DHT22;368;48.698;9.116;2023-07-13T11:04:20;26.80;53.90
770;DHT22;368;48.698;9.116;2023-07-13T11:06:50;26.70;54.50
770;DHT22;368;48.698;9.116;2023-07-13T11:09:32;26.70;55.30
770;DHT22;368;48.698;9.116;2023-07-13T11:12:00;26.70;54.00
770;DHT22;368;48.698;9.116;2023-07-13T11:14:35;26.30;54.50
770;DHT22;368;48.698;9.116;2023-07-13T11:17:32;26.60;54.50
770;DHT22;368;48.698;9.116;2023-07-13T11:20:18;27.50;52.10
770;DHT22;368;48.698;9.116;2023-07-13T11:22:48;25.70;54.40
770;DHT22;368;48.698;9.116;2023-07-13T11:25:26;27.00;52.60
770;DHT22;368;48.698;9.116;2023-07-13T11:28:06;26.60;53.50
770;DHT22;368;48.698;9.116;2023-07-13T11:30:37;26.30;53.70
770;DHT22;368;48.698;9.116;2023-07-13T11:33:15;26.20;54.70
770;DHT22;368;48.698;9.116;2023-07-13T11:35:48;26.00;54.50
770;DHT22;368;48.698;9.116;2023-07-13T11:38:19;25.50;55.50
770;DHT22;368;48.698;9.116;2023-07-13T11:40:47;25.80;56.70
770;DHT22;368;48.698;9.116;2023-07-13T11:43:15;25.90;54.30
770;DHT22;368;48.698;9.116;2023-07-13T11:45:43;28.70;52.90
770;DHT22;368;48.698;9.116;2023-07-13T11:48:23;31.30;48.20
770;DHT22;368;48.698;9.116;2023-07-13T11:50:53;31.50;45.70
770;DHT22;368;48.698;9.116;2023-07-13T11:53:22;31.60;46.10
770;DHT22;368;48.698;9.116;2023-07-13T11:55:49;31.70;47.30
770;DHT22;368;48.698;9.116;2023-07-13T11:58:21;30.50;46.90
770;DHT22;368;48.698;9.116;2023-07-13T12:00:49;29.10;50.70
770;DHT22;368;48.698;9.116;2023-07-13T12:03:21;29.10;51.10
770;DHT22;368;48.698;9.116;2023-07-13T12:05:56;30.30;47.50
770;DHT22;368;48.698;9.116;2023-07-13T12:08:24;30.20;48.60
770;DHT22;368;48.698;9.116;2023-07-13T12:10:58;30.40;48.10
770;DHT22;368;48.698;9.116;2023-07-13T12:13:26;29.90;46.50
770;DHT22;368;48.698;9.116;2023-07-13T12:15:53;29.50;47.60
770;DHT22;368;48.698;9.116;2023-07-13T12:18:23;28.20;49.40
770;DHT22;368;48.698;9.116;2023-07-13T12:20:57;27.20;51.60
770;DHT22;368;48.698;9.116;2023-07-13T12:23:28;27.50;52.20
770;DHT22;368;48.698;9.116;2023-07-13T12:25:56;29.10;49.70
770;DHT22;368;48.698;9.116;2023-07-13T12:28:32;31.10;48.10
770;DHT22;368;48.698;9.116;2023-07-13T12:31:01;32.70;44.80
770;DHT22;368;48.698;9.116;2023-07-13T12:33:30;32.50;43.30
770;DHT22;368;48.698;9.116;2023-07-13T12:36:00;28.80;47.00
770;DHT22;368;48.698;9.116;2023-07-13T12:38:29;28.60;47.90
770;DHT22;368;48.698;9.116;2023-07-13T12:40:56;28.40;49.60
770;DHT22;368;48.698;9.116;2023-07-13T12:43:24;29.00;48.80
770;DHT22;368;48.698;9.116;2023-07-13T12:45:57;31.10;46.20
770;DHT22;368;48.698;9.116;2023-07-13T12:48:24;31.80;44.10
770;DHT22;368;48.698;9.116;2023-07-13T12:50:54;31.80;44.00
770;DHT22;368;48.698;9.116;2023-07-13T12:53:23;31.70;45.60
770;DHT22;368;48.698;9.116;2023-07-13T12:55:52;32.80;42.70
770;DHT22;368;48.698;9.116;2023-07-13T12:58:24;34.00;41.50
770;DHT22;368;48.698;9.116;2023-07-13T13:00:54;32.70;42.80
770;DHT22;368;48.698;9.116;2023-07-13T13:03:26;30.30;44.40
770;DHT22;368;48.698;9.116;2023-07-13T13:05:59;29.80;46.10
770;DHT22;368;48.698;9.116;2023-07-13T13:08:29;29.00;47.90
770;DHT22;368;48.698;9.116;2023-07-13T13:10:56;30.00;46.30
770;DHT22;368;48.698;9.116;2023-07-13T13:13:23;31.70;42.60
770;DHT22;368;48.698;9.116;2023-07-13T13:15:50;31.70;42.30
770;DHT22;368;48.698;9.116;2023-07-13T13:18:18;31.50;44.10
770;DHT22;368;48.698;9.116;2023-07-13T13:20:46;31.90;44.90
770;DHT22;368;48.698;9.116;2023-07-13T13:23:16;32.10;43.60
770;DHT22;368;48.698;9.116;2023-07-13T13:25:45;32.10;43.20
770;DHT22;368;48.698;9.116;2023-07-13T13:28:14;28.70;46.80
770;DHT22;368;48.698;9.116;2023-07-13T13:30:42;29.90;46.60
770;DHT22;368;48.698;9.116;2023-07-13T13:33:11;31.30;44.20
770;DHT22;368;48.698;9.116;2023-07-13T13:35:39;31.80;44.00
770;DHT22;368;48.698;9.116;2023-07-13T13:38:11;32.30;43.80
770;DHT22;368;48.698;9.116;2023-07-13T13:40:41;32.90;42.20
770;DHT22;368;48.698;9.116;2023-07-13T13:43:15;32.90;41.30
770;DHT22;368;48.698;9.116;2023-07-13T13:45:43;32.50;42.30
770;DHT22;368;48.698;9.116;2023-07-13T13:48:15;32.40;42.30
770;DHT22;368;48.698;9.116;2023-07-13T13:50:42;32.50;41.00
770;DHT22;368;48.698;9.116;2023-07-13T13:53:11;30.90;44.10
770;DHT22;368;48.698;9.116;2023-07-13T13:55:38;30.20;43.70
770;DHT22;368;48.698;9.116;2023-07-13T13:58:08;29.50;44.20
770;DHT22;368;48.698;9.116;2023-07-13T14:00:37;27.60;46.60
770;DHT22;368;48.698;9.116;2023-07-13T14:03:05;28.70;47.00
770;DHT22;368;48.698;9.116;2023-07-13T14:05:33;28.60;46.80
770;DHT22;368;48.698;9.116;2023-07-13T14:07:59;29.20;46.00
770;DHT22;368;48.698;9.116;2023-07-13T14:10:27;28.30;46.10
770;DHT22;368;48.698;9.116;2023-07-13T14:12:56;28.20;47.00
770;DHT22;368;48.698;9.116;2023-07-13T14:15:26;27.70;47.50
770;DHT22;368;48.698;9.116;2023-07-13T14:17:53;27.20;48.60
770;DHT22;368;48.698;9.116;2023-07-13T14:20:22;27.70;49.00
770;DHT22;368;48.698;9.116;2023-07-13T14:22:50;28.40;47.00
770;DHT22;368;48.698;9.116;2023-07-13T14:25:18;27.90;47.90
770;DHT22;368;48.698;9.116;2023-07-13T14:27:48;27.70;49.60
770;DHT22;368;48.698;9.116;2023-07-13T14:30:17;28.50;47.30
770;DHT22;368;48.698;9.116;2023-07-13T14:32:45;29.30;45.80
770;DHT22;368;48.698;9.116;2023-07-13T14:35:13;29.50;43.60
770;DHT22;368;48.698;9.116;2023-07-13T14:37:41;29.50;44.00
770;DHT22;368;48.698;9.116;2023-07-13T14:40:17;29.50;45.00
770;DHT22;368;48.698;9.116;2023-07-13T14:42:44;28.50;45.30
770;DHT22;368;48.698;9.116;2023-07-13T14:45:13;28.50;46.40
770;DHT22;368;48.698;9.116;2023-07-13T14:47:41;28.20;48.20
770;DHT22;368;48.698;9.116;2023-07-13T14:50:14;29.10;46.90
770;DHT22;368;48.698;9.116;2023-07-13T14:52:43;28.60;47.30
770;DHT22;368;48.698;9.116;2023-07-13T14:55:11;28.00;47.60
770;DHT22;368;48.698;9.116;2023-07-13T14:57:37;27.60;48.10
770;DHT22;368;48.698;9.116;2023-07-13T15:00:09;26.60;49.00
770;DHT22;368;48.698;9.116;2023-07-13T15:02:39;26.30;50.30
770;DHT22;368;48.698;9.116;2023-07-13T15:05:14;26.40;50.70
770;DHT22;368;48.698;9.116;2023-07-13T15:07:42;27.20;49.80
770;DHT22;368;48.698;9.116;2023-07-13T15:10:14;27.20;49.80
770;DHT22;368;48.698;9.116;2023-07-13T15:12:41;27.20;49.40
770;DHT22;368;48.698;9.116;2023-07-13T15:15:08;28.30;49.20
770;DHT22;368;48.698;9.116;2023-07-13T15:17:37;28.50;48.00
770;DHT22;368;48.698;9.116;2023-07-13T15:20:12;27.30;48.90
770;DHT22;368;48.698;9.116;2023-07-13T15:22:44;26.90;50.10
770;DHT22;368;48.698;9.116;2023-07-13T15:25:16;27.30;50.60
770;DHT22;368;48.698;9.116;2023-07-13T15:27:43;26.80;50.20
770;DHT22;368;48.698;9.116;2023-07-13T15:30:10;26.10;50.70
770;DHT22;368;48.698;9.116;2023-07-13T15:32:37;26.10;51.20
770;DHT22;368;48.698;9.116;2023-07-13T15:35:08;25.90;51.20
770;DHT22;368;48.698;9.116;2023-07-13T15:37:40;26.00;51.30
770;DHT22;368;48.698;9.116;2023-07-13T15:40:10;25.90;51.80
770;DHT22;368;48.698;9.116;2023-07-13T15:42:37;26.00;52.10
770;DHT22;368;48.698;9.116;2023-07-13T15:45:14;26.20;51.90
770;DHT22;368;48.698;9.116;2023-07-13T15:47:41;26.50;50.90
770;DHT22;368;48.698;9.116;2023-07-13T15:50:12;26.70;51.70
770;DHT22;368;48.698;9.116;2023-07-13T15:52:39;26.70;51.60
770;DHT22;368;48.698;9.116;2023-07-13T15:55:10;26.60;50.10
770;DHT22;368;48.698;9.116;2023-07-13T15:57:37;25.70;50.90
770;DHT22;368;48.698;9.116;2023-07-13T16:00:14;26.00;50.80
770;DHT22;368;48.698;9.116;2023-07-13T16:02:43;26.10;51.00
770;DHT22;368;48.698;9.116;2023-07-13T16:05:09;26.00;51.10
770;DHT22;368;48.698;9.116;2023-07-13T16:07:36;26.10;51.60
770;DHT22;368;48.698;9.116;2023-07-13T16:10:04;26.20;51.30
770;DHT22;368;48.698;9.116;2023-07-13T16:12:33;26.00;51.60
770;DHT22;368;48.698;9.116;2023-07-13T16:15:00;25.40;52.00
770;DHT22;368;48.698;9.116;2023-07-13T16:17:28;25.40;52.40
770;DHT22;368;48.698;9.116;2023-07-13T16:19:55;24.90;52.50
770;DHT22;368;48.698;9.116;2023-07-13T16:22:24;25.00;52.90
770;DHT22;368;48.698;9.116;2023-07-13T16:24:51;25.00;52.70
770;DHT22;368;48.698;9.116;2023-07-13T16:27:21;25.00;52.50
770;DHT22;368;48.698;9.116;2023-07-13T16:29:50;25.30;52.10
770;DHT22;368;48.698;9.116;2023-07-13T16:32:17;25.40;52.50
770;DHT22;368;48.698;9.116;2023-07-13T16:34:44;25.50;52.00
770;DHT22;368;48.698;9.116;2023-07-13T16:37:15;25.50;52.60
770;DHT22;368;48.698;9.116;2023-07-13T16:39:46;25.50;52.40
770;DHT22;368;48.698;9.116;2023-07-13T16:42:13;25.40;52.50
770;DHT22;368;48.698;9.116;2023-07-13T16:44:40;25.30;53.30
770;DHT22;368;48.698;9.116;2023-07-13T16:47:13;25.40;52.00